sensor_id;sensor_type;location;lat;lon;timestamp;P1;durP1;ratioP1;P2;durP2;ratioP2
735;SDS011;352;48.626;9.238;2023-09-19T06:04:00;5.27;;;2.00;;
735;SDS011;352;48.626;9.238;2023-09-19T06:06:27;3.83;;;2.20;;
735;SDS011;352;48.626;9.238;2023-09-19T06:08:55;2.90;;;1.50;;
735;SDS011;352;48.626;9.238;2023-09-19T06:11:22;1.70;;;1.60;;
735;SDS011;352;48.626;9.238;2023-09-19T06:13:51;2.10;;;1.70;;
735;SDS011;352;48.626;9.238;2023-09-19T06:16:18;1.87;;;1.77;;
735;SDS011;352;48.626;9.238;2023-09-19T06:18:45;1.50;;;1.40;;
735;SDS011;352;48.626;9.238;2023-09-19T06:21:13;1.60;;;1.50;;
735;SDS011;352;48.626;9.238;2023-09-19T06:23:39;4.00;;;1.60;;
735;SDS011;352;48.626;9.238;2023-09-19T06:26:06;2.33;;;1.70;;
735;SDS011;352;48.626;9.238;2023-09-19T06:28:33;1.70;;;1.33;;
735;SDS011;352;48.626;9.238;2023-09-19T06:31:01;1.70;;;1.60;;
735;SDS011;352;48.626;9.238;2023-09-19T06:33:28;1.63;;;1.53;;
735;SDS011;352;48.626;9.238;2023-09-19T06:35:56;2.20;;;1.90;;
735;SDS011;352;48.626;9.238;2023-09-19T06:38:26;2.40;;;2.20;;
735;SDS011;352;48.626;9.238;2023-09-19T06:40:53;1.90;;;1.80;;
735;SDS011;352;48.626;9.238;2023-09-19T06:43:20;1.87;;;1.77;;
735;SDS011;352;48.626;9.238;2023-09-19T06:45:47;1.53;;;1.37;;
735;SDS011;352;48.626;9.238;2023-09-19T06:48:14;6.27;;;2.10;;
735;SDS011;352;48.626;9.238;2023-09-19T06:50:40;2.50;;;1.67;;
735;SDS011;352;48.626;9.238;2023-09-19T06:53:09;1.70;;;1.60;;
735;SDS011;352;48.626;9.238;2023-09-19T06:55:37;1.87;;;1.77;;
735;SDS011;352;48.626;9.238;2023-09-19T06:58:04;2.10;;;1.53;;
735;SDS011;352;48.626;9.238;2023-09-19T07:00:31;1.40;;;1.30;;
735;SDS011;352;48.626;9.238;2023-09-19T07:03:01;1.60;;;1.50;;
735;SDS011;352;48.626;9.238;2023-09-19T07:05:31;1.50;;;1.40;;
735;SDS011;352;48.626;9.238;2023-09-19T07:07:58;2.40;;;1.50;;
735;SDS011;352;48.626;9.238;2023-09-19T07:10:25;3.97;;;1.70;;
735;SDS011;352;48.626;9.238;2023-09-19T07:12:56;4.63;;;1.60;;
735;SDS011;352;48.626;9.238;2023-09-19T07:15:23;1.57;;;1.47;;
735;SDS011;352;48.626;9.238;2023-09-19T07:17:51;2.27;;;1.47;;
735;SDS011;352;48.626;9.238;2023-09-19T07:20:18;2.30;;;1.60;;
735;SDS011;352;48.626;9.238;2023-09-19T07:22:45;1.30;;;1.20;;
735;SDS011;352;48.626;9.238;2023-09-19T07:25:13;2.27;;;2.07;;
735;SDS011;352;48.626;9.238;2023-09-19T07:27:40;1.47;;;1.37;;
735;SDS011;352;48.626;9.238;2023-09-19T07:30:09;2.63;;;1.70;;
735;SDS011;352;48.626;9.238;2023-09-19T07:32:36;1.50;;;1.40;;
735;SDS011;352;48.626;9.238;2023-09-19T07:35:05;1.47;;;1.37;;
735;SDS011;352;48.626;9.238;2023-09-19T07:37:33;1.83;;;1.43;;
735;SDS011;352;48.626;9.238;2023-09-19T07:40:01;2.67;;;1.57;;
735;SDS011;352;48.626;9.238;2023-09-19T07:42:32;1.80;;;1.70;;
735;SDS011;352;48.626;9.238;2023-09-19T07:45:00;1.83;;;1.73;;
735;SDS011;352;48.626;9.238;2023-09-19T07:47:28;1.50;;;1.40;;
735;SDS011;352;48.626;9.238;2023-09-19T07:49:55;1.60;;;1.47;;
735;SDS011;352;48.626;9.238;2023-09-19T07:52:22;2.37;;;1.43;;
735;SDS011;352;48.626;9.238;2023-09-19T07:54:49;1.43;;;1.33;;
735;SDS011;352;48.626;9.238;2023-09-19T07:57:15;2.30;;;1.43;;
735;SDS011;352;48.626;9.238;2023-09-19T07:59:42;3.07;;;1.53;;
735;SDS011;352;48.626;9.238;2023-09-19T08:02:09;1.30;;;1.20;;
735;SDS011;352;48.626;9.238;2023-09-19T08:04:42;1.83;;;1.73;;
735;SDS011;352;48.626;9.238;2023-09-19T08:07:08;2.67;;;1.67;;
735;SDS011;352;48.626;9.238;2023-09-19T08:09:36;1.70;;;1.60;;
735;SDS011;352;48.626;9.238;2023-09-19T08:12:03;6.20;;;1.90;;
735;SDS011;352;48.626;9.238;2023-09-19T08:14:31;3.47;;;1.37;;
735;SDS011;352;48.626;9.238;2023-09-19T08:16:58;2.70;;;1.57;;
735;SDS011;352;48.626;9.238;2023-09-19T08:19:26;1.67;;;1.57;;
735;SDS011;352;48.626;9.238;2023-09-19T08:21:55;3.50;;;1.80;;
735;SDS011;352;48.626;9.238;2023-09-19T08:24:23;1.90;;;1.80;;
735;SDS011;352;48.626;9.238;2023-09-19T08:26:52;1.97;;;1.70;;
735;SDS011;352;48.626;9.238;2023-09-19T08:29:19;4.57;;;2.00;;
735;SDS011;352;48.626;9.238;2023-09-19T08:31:46;10.27;;;2.13;;
735;SDS011;352;48.626;9.238;2023-09-19T08:34:14;2.50;;;2.10;;
735;SDS011;352;48.626;9.238;2023-09-19T08:36:41;2.43;;;2.27;;
735;SDS011;352;48.626;9.238;2023-09-19T08:39:11;2.30;;;2.10;;
735;SDS011;352;48.626;9.238;2023-09-19T08:41:38;2.10;;;2.00;;
735;SDS011;352;48.626;9.238;2023-09-19T08:44:05;2.20;;;2.10;;
735;SDS011;352;48.626;9.238;2023-09-19T08:46:33;2.03;;;1.93;;
735;SDS011;352;48.626;9.238;2023-09-19T08:49:04;1.90;;;1.80;;
735;SDS011;352;48.626;9.238;2023-09-19T08:51:33;2.10;;;1.97;;
735;SDS011;352;48.626;9.238;2023-09-19T08:54:10;2.33;;;2.10;;
735;SDS011;352;48.626;9.238;2023-09-19T08:56:44;2.60;;;1.90;;
735;SDS011;352;48.626;9.238;2023-09-19T08:59:12;2.27;;;2.17;;
735;SDS011;352;48.626;9.238;2023-09-19T09:01:40;2.23;;;2.03;;
735;SDS011;352;48.626;9.238;2023-09-19T09:04:08;2.33;;;2.13;;
735;SDS011;352;48.626;9.238;2023-09-19T09:06:38;2.90;;;2.60;;
735;SDS011;352;48.626;9.238;2023-09-19T09:09:06;2.50;;;2.30;;
735;SDS011;352;48.626;9.238;2023-09-19T09:11:35;2.80;;;2.63;;
735;SDS011;352;48.626;9.238;2023-09-19T09:14:04;2.93;;;2.73;;
735;SDS011;352;48.626;9.238;2023-09-19T09:16:33;2.67;;;2.50;;
735;SDS011;352;48.626;9.238;2023-09-19T09:19:00;2.63;;;2.53;;
735;SDS011;352;48.626;9.238;2023-09-19T09:21:27;2.93;;;2.83;;
735;SDS011;352;48.626;9.238;2023-09-19T09:23:54;3.00;;;2.80;;
735;SDS011;352;48.626;9.238;2023-09-19T09:29:16;3.13;;;2.93;;
735;SDS011;352;48.626;9.238;2023-09-19T09:32:16;3.00;;;2.90;;
735;SDS011;352;48.626;9.238;2023-09-19T09:34:45;3.10;;;2.90;;
735;SDS011;352;48.626;9.238;2023-09-19T09:37:13;3.20;;;3.00;;
735;SDS011;352;48.626;9.238;2023-09-19T09:39:42;3.30;;;3.13;;
735;SDS011;352;48.626;9.238;2023-09-19T09:42:23;2.97;;;2.87;;
735;SDS011;352;48.626;9.238;2023-09-19T09:45:12;3.77;;;3.20;;
735;SDS011;352;48.626;9.238;2023-09-19T09:47:43;3.40;;;3.20;;
735;SDS011;352;48.626;9.238;2023-09-19T09:50:25;2.93;;;2.73;;
735;SDS011;352;48.626;9.238;2023-09-19T09:53:02;2.70;;;2.53;;
735;SDS011;352;48.626;9.238;2023-09-19T09:55:36;3.13;;;2.93;;
735;SDS011;352;48.626;9.238;2023-09-19T09:58:23;2.73;;;2.63;;
735;SDS011;352;48.626;9.238;2023-09-19T10:00:55;2.93;;;2.63;;
735;SDS011;352;48.626;9.238;2023-09-19T10:03:30;7.53;;;2.77;;
735;SDS011;352;48.626;9.238;2023-09-19T10:05:58;2.93;;;2.63;;
735;SDS011;352;48.626;9.238;2023-09-19T10:08:28;4.23;;;2.40;;
735;SDS011;352;48.626;9.238;2023-09-19T10:10:56;5.30;;;2.43;;
735;SDS011;352;48.626;9.238;2023-09-19T10:13:30;2.53;;;2.33;;
735;SDS011;352;48.626;9.238;2023-09-19T10:16:03;3.70;;;2.63;;
735;SDS011;352;48.626;9.238;2023-09-19T10:18:35;2.80;;;2.10;;
735;SDS011;352;48.626;9.238;2023-09-19T10:21:04;2.30;;;2.20;;
735;SDS011;352;48.626;9.238;2023-09-19T10:23:34;5.47;;;2.70;;
735;SDS011;352;48.626;9.238;2023-09-19T10:26:02;2.30;;;2.20;;
735;SDS011;352;48.626;9.238;2023-09-19T10:28:30;2.70;;;2.50;;
735;SDS011;352;48.626;9.238;2023-09-19T10:31:00;2.30;;;2.10;;
735;SDS011;352;48.626;9.238;2023-09-19T10:33:29;2.63;;;2.20;;
735;SDS011;352;48.626;9.238;2023-09-19T10:36:02;2.10;;;2.00;;
735;SDS011;352;48.626;9.238;2023-09-19T10:38:31;2.30;;;2.20;;
735;SDS011;352;48.626;9.238;2023-09-19T10:41:01;1.90;;;1.80;;
735;SDS011;352;48.626;9.238;2023-09-19T10:43:29;1.93;;;1.83;;
735;SDS011;352;48.626;9.238;2023-09-19T10:45:57;2.23;;;1.97;;
735;SDS011;352;48.626;9.238;2023-09-19T10:48:30;2.17;;;2.07;;
735;SDS011;352;48.626;9.238;2023-09-19T10:50:58;2.30;;;2.10;;
735;SDS011;352;48.626;9.238;2023-09-19T10:53:31;2.37;;;2.17;;
735;SDS011;352;48.626;9.238;2023-09-19T10:56:09;2.13;;;2.03;;
735;SDS011;352;48.626;9.238;2023-09-19T10:58:42;2.33;;;2.23;;
735;SDS011;352;48.626;9.238;2023-09-19T11:01:09;2.10;;;1.90;;
735;SDS011;352;48.626;9.238;2023-09-19T11:03:39;4.10;;;3.70;;
735;SDS011;352;48.626;9.238;2023-09-19T11:06:09;4.10;;;3.80;;
735;SDS011;352;48.626;9.238;2023-09-19T11:08:57;8.20;;;7.40;;
735;SDS011;352;48.626;9.238;2023-09-19T11:11:44;2.70;;;2.23;;
735;SDS011;352;48.626;9.238;2023-09-19T11:25:51;2.50;;;2.40;;
735;SDS011;352;48.626;9.238;2023-09-19T11:34:39;2.60;;;2.40;;
735;SDS011;352;48.626;9.238;2023-09-19T11:40:36;2.80;;;2.60;;
735;SDS011;352;48.626;9.238;2023-09-19T11:46:01;2.87;;;2.67;;
735;SDS011;352;48.626;9.238;2023-09-19T11:48:30;2.70;;;2.50;;
735;SDS011;352;48.626;9.238;2023-09-19T11:51:00;2.43;;;2.30;;
735;SDS011;352;48.626;9.238;2023-09-19T11:53:32;2.30;;;2.20;;
735;SDS011;352;48.626;9.238;2023-09-19T11:56:04;2.03;;;1.93;;
735;SDS011;352;48.626;9.238;2023-09-19T11:58:35;2.50;;;2.40;;
735;SDS011;352;48.626;9.238;2023-09-19T12:01:04;2.03;;;1.93;;
735;SDS011;352;48.626;9.238;2023-09-19T12:03:33;2.43;;;2.10;;
735;SDS011;352;48.626;9.238;2023-09-19T12:06:10;2.20;;;2.10;;
735;SDS011;352;48.626;9.238;2023-09-19T12:08:41;2.30;;;2.10;;
735;SDS011;352;48.626;9.238;2023-09-19T12:11:13;2.23;;;2.13;;
735;SDS011;352;48.626;9.238;2023-09-19T12:13:41;2.23;;;2.10;;
735;SDS011;352;48.626;9.238;2023-09-19T12:16:13;2.10;;;2.00;;
735;SDS011;352;48.626;9.238;2023-09-19T12:18:41;2.53;;;2.07;;
735;SDS011;352;48.626;9.238;2023-09-19T12:21:23;2.10;;;2.00;;
735;SDS011;352;48.626;9.238;2023-09-19T12:26:45;2.30;;;2.10;;
735;SDS011;352;48.626;9.238;2023-09-19T12:29:17;2.67;;;2.47;;
735;SDS011;352;48.626;9.238;2023-09-19T12:31:51;2.30;;;2.10;;
735;SDS011;352;48.626;9.238;2023-09-19T12:34:23;2.60;;;2.40;;
735;SDS011;352;48.626;9.238;2023-09-19T12:37:05;2.73;;;2.53;;
735;SDS011;352;48.626;9.238;2023-09-19T12:39:41;9.43;;;3.07;;
735;SDS011;352;48.626;9.238;2023-09-19T12:42:11;2.60;;;2.40;;
735;SDS011;352;48.626;9.238;2023-09-19T12:44:40;2.10;;;2.00;;
735;SDS011;352;48.626;9.238;2023-09-19T12:47:09;2.10;;;2.00;;
735;SDS011;352;48.626;9.238;2023-09-19T12:52:35;2.63;;;2.43;;
735;SDS011;352;48.626;9.238;2023-09-19T12:55:03;2.43;;;2.33;;
735;SDS011;352;48.626;9.238;2023-09-19T12:57:33;2.30;;;2.20;;
735;SDS011;352;48.626;9.238;2023-09-19T13:00:00;2.70;;;2.50;;
735;SDS011;352;48.626;9.238;2023-09-19T13:02:27;2.30;;;2.20;;
735;SDS011;352;48.626;9.238;2023-09-19T13:04:53;2.20;;;2.10;;
735;SDS011;352;48.626;9.238;2023-09-19T13:07:39;2.60;;;2.40;;
735;SDS011;352;48.626;9.238;2023-09-19T13:10:11;2.70;;;2.50;;
735;SDS011;352;48.626;9.238;2023-09-19T13:12:41;2.67;;;2.47;;
735;SDS011;352;48.626;9.238;2023-09-19T13:15:13;2.53;;;2.33;;
735;SDS011;352;48.626;9.238;2023-09-19T13:17:44;2.57;;;2.37;;
735;SDS011;352;48.626;9.238;2023-09-19T13:20:20;2.73;;;2.30;;
735;SDS011;352;48.626;9.238;2023-09-19T13:22:52;2.60;;;2.40;;
735;SDS011;352;48.626;9.238;2023-09-19T13:25:24;3.73;;;2.40;;
735;SDS011;352;48.626;9.238;2023-09-19T13:27:56;2.73;;;2.50;;
735;SDS011;352;48.626;9.238;2023-09-19T13:30:25;2.47;;;2.27;;
735;SDS011;352;48.626;9.238;2023-09-19T13:33:04;2.57;;;2.33;;
735;SDS011;352;48.626;9.238;2023-09-19T13:35:32;2.83;;;2.37;;
735;SDS011;352;48.626;9.238;2023-09-19T13:37:58;2.73;;;2.63;;
735;SDS011;352;48.626;9.238;2023-09-19T13:40:26;2.77;;;2.57;;
735;SDS011;352;48.626;9.238;2023-09-19T13:42:57;3.70;;;2.60;;
735;SDS011;352;48.626;9.238;2023-09-19T13:45:23;2.30;;;2.20;;
735;SDS011;352;48.626;9.238;2023-09-19T13:47:52;2.67;;;2.50;;
735;SDS011;352;48.626;9.238;2023-09-19T13:50:18;2.93;;;2.73;;
735;SDS011;352;48.626;9.238;2023-09-19T13:52:49;2.67;;;2.50;;
735;SDS011;352;48.626;9.238;2023-09-19T13:55:16;2.50;;;2.10;;
735;SDS011;352;48.626;9.238;2023-09-19T13:57:45;2.40;;;2.30;;
735;SDS011;352;48.626;9.238;2023-09-19T14:00:14;2.50;;;2.30;;
735;SDS011;352;48.626;9.238;2023-09-19T14:02:41;2.90;;;2.70;;
735;SDS011;352;48.626;9.238;2023-09-19T14:05:09;3.07;;;2.87;;
735;SDS011;352;48.626;9.238;2023-09-19T14:07:37;2.80;;;2.60;;
735;SDS011;352;48.626;9.238;2023-09-19T14:10:06;2.57;;;2.40;;
735;SDS011;352;48.626;9.238;2023-09-19T14:12:33;2.67;;;2.47;;
735;SDS011;352;48.626;9.238;2023-09-19T14:15:00;2.67;;;2.57;;
735;SDS011;352;48.626;9.238;2023-09-19T14:17:29;2.70;;;2.60;;
735;SDS011;352;48.626;9.238;2023-09-19T14:19:55;2.70;;;2.60;;
735;SDS011;352;48.626;9.238;2023-09-19T14:22:22;2.50;;;2.30;;
735;SDS011;352;48.626;9.238;2023-09-19T14:24:49;2.63;;;2.50;;
735;SDS011;352;48.626;9.238;2023-09-19T14:27:15;2.90;;;2.70;;
735;SDS011;352;48.626;9.238;2023-09-19T14:29:42;2.87;;;2.67;;
735;SDS011;352;48.626;9.238;2023-09-19T14:32:09;3.00;;;2.80;;
735;SDS011;352;48.626;9.238;2023-09-19T14:34:37;3.10;;;2.40;;
735;SDS011;352;48.626;9.238;2023-09-19T14:37:07;2.57;;;2.37;;
735;SDS011;352;48.626;9.238;2023-09-19T14:39:34;2.57;;;2.47;;
735;SDS011;352;48.626;9.238;2023-09-19T14:42:00;2.50;;;2.40;;
735;SDS011;352;48.626;9.238;2023-09-19T14:44:29;2.73;;;2.63;;
735;SDS011;352;48.626;9.238;2023-09-19T14:46:55;4.13;;;2.63;;
735;SDS011;352;48.626;9.238;2023-09-19T14:49:22;2.93;;;2.63;;
735;SDS011;352;48.626;9.238;2023-09-19T14:51:51;3.10;;;2.90;;
735;SDS011;352;48.626;9.238;2023-09-19T14:54:18;2.60;;;2.50;;
735;SDS011;352;48.626;9.238;2023-09-19T14:56:45;3.40;;;3.10;;
735;SDS011;352;48.626;9.238;2023-09-19T14:59:18;2.90;;;2.60;;
735;SDS011;352;48.626;9.238;2023-09-19T15:01:45;3.13;;;2.50;;
735;SDS011;352;48.626;9.238;2023-09-19T15:04:13;2.70;;;2.50;;
735;SDS011;352;48.626;9.238;2023-09-19T15:06:40;2.73;;;2.60;;
735;SDS011;352;48.626;9.238;2023-09-19T15:09:09;2.50;;;2.40;;
735;SDS011;352;48.626;9.238;2023-09-19T15:11:36;2.30;;;2.20;;
735;SDS011;352;48.626;9.238;2023-09-19T15:14:03;2.20;;;2.10;;
735;SDS011;352;48.626;9.238;2023-09-19T15:16:30;2.83;;;2.63;;
735;SDS011;352;48.626;9.238;2023-09-19T15:18:57;2.67;;;2.57;;
735;SDS011;352;48.626;9.238;2023-09-19T15:21:24;3.37;;;3.17;;
735;SDS011;352;48.626;9.238;2023-09-19T15:23:51;3.10;;;2.90;;
735;SDS011;352;48.626;9.238;2023-09-19T15:26:19;2.77;;;2.67;;
735;SDS011;352;48.626;9.238;2023-09-19T15:28:47;4.10;;;2.80;;
735;SDS011;352;48.626;9.238;2023-09-19T15:31:14;2.80;;;2.50;;
735;SDS011;352;48.626;9.238;2023-09-19T15:33:41;2.73;;;2.57;;
735;SDS011;352;48.626;9.238;2023-09-19T15:36:09;2.67;;;2.57;;
735;SDS011;352;48.626;9.238;2023-09-19T15:38:57;2.67;;;2.47;;
735;SDS011;352;48.626;9.238;2023-09-19T15:41:27;2.60;;;2.23;;
735;SDS011;352;48.626;9.238;2023-09-19T15:43:56;3.60;;;2.60;;
735;SDS011;352;48.626;9.238;2023-09-19T15:46:24;2.50;;;2.30;;
735;SDS011;352;48.626;9.238;2023-09-19T15:48:52;2.50;;;2.40;;
735;SDS011;352;48.626;9.238;2023-09-19T15:51:19;2.20;;;2.10;;
735;SDS011;352;48.626;9.238;2023-09-19T15:53:47;2.30;;;2.10;;
735;SDS011;352;48.626;9.238;2023-09-19T15:56:14;5.80;;;2.40;;
735;SDS011;352;48.626;9.238;2023-09-19T15:58:45;2.10;;;2.00;;
735;SDS011;352;48.626;9.238;2023-09-19T16:01:12;2.30;;;2.10;;
735;SDS011;352;48.626;9.238;2023-09-19T16:03:39;2.40;;;2.20;;
735;SDS011;352;48.626;9.238;2023-09-19T16:06:09;2.30;;;2.10;;
735;SDS011;352;48.626;9.238;2023-09-19T16:08:39;2.70;;;2.50;;
735;SDS011;352;48.626;9.238;2023-09-19T16:11:06;2.77;;;2.50;;
735;SDS011;352;48.626;9.238;2023-09-19T16:13:33;2.27;;;2.17;;
735;SDS011;352;48.626;9.238;2023-09-19T16:16:01;2.80;;;2.60;;
735;SDS011;352;48.626;9.238;2023-09-19T16:18:28;2.70;;;2.50;;
735;SDS011;352;48.626;9.238;2023-09-19T16:21:00;2.70;;;2.53;;
735;SDS011;352;48.626;9.238;2023-09-19T16:23:28;3.17;;;2.97;;
735;SDS011;352;48.626;9.238;2023-09-19T16:26:00;2.83;;;2.73;;
735;SDS011;352;48.626;9.238;2023-09-19T16:28:29;2.83;;;2.63;;
735;SDS011;352;48.626;9.238;2023-09-19T16:30:57;2.90;;;2.70;;
735;SDS011;352;48.626;9.238;2023-09-19T16:33:26;2.33;;;2.13;;
735;SDS011;352;48.626;9.238;2023-09-19T16:35:52;2.37;;;2.27;;
735;SDS011;352;48.626;9.238;2023-09-19T16:38:19;2.80;;;2.60;;
735;SDS011;352;48.626;9.238;2023-09-19T16:40:51;2.30;;;2.20;;
735;SDS011;352;48.626;9.238;2023-09-19T16:43:18;3.13;;;2.47;;
735;SDS011;352;48.626;9.238;2023-09-19T16:45:51;2.60;;;2.50;;
735;SDS011;352;48.626;9.238;2023-09-19T16:48:19;2.53;;;2.40;;
735;SDS011;352;48.626;9.238;2023-09-19T16:50:47;2.53;;;2.43;;
735;SDS011;352;48.626;9.238;2023-09-19T16:53:14;3.00;;;2.70;;
735;SDS011;352;48.626;9.238;2023-09-19T16:55:42;2.80;;;2.60;;
735;SDS011;352;48.626;9.238;2023-09-19T16:58:08;2.70;;;2.50;;
735;SDS011;352;48.626;9.238;2023-09-19T17:00:36;2.80;;;2.60;;
735;SDS011;352;48.626;9.238;2023-09-19T17:03:02;3.00;;;2.80;;
735;SDS011;352;48.626;9.238;2023-09-19T17:05:30;3.40;;;2.83;;
735;SDS011;352;48.626;9.238;2023-09-19T17:07:58;3.03;;;2.70;;
735;SDS011;352;48.626;9.238;2023-09-19T17:10:29;3.77;;;2.57;;
735;SDS011;352;48.626;9.238;2023-09-19T17:12:57;3.20;;;3.00;;
735;SDS011;352;48.626;9.238;2023-09-19T17:15:24;3.43;;;3.23;;
735;SDS011;352;48.626;9.238;2023-09-19T17:17:51;2.60;;;2.47;;
735;SDS011;352;48.626;9.238;2023-09-19T17:20:19;3.50;;;2.83;;
735;SDS011;352;48.626;9.238;2023-09-19T17:22:46;2.90;;;2.70;;
735;SDS011;352;48.626;9.238;2023-09-19T17:25:14;2.83;;;2.63;;
735;SDS011;352;48.626;9.238;2023-09-19T17:27:41;3.30;;;2.80;;
735;SDS011;352;48.626;9.238;2023-09-19T17:30:09;3.20;;;3.00;;
735;SDS011;352;48.626;9.238;2023-09-19T17:32:39;3.00;;;2.80;;
735;SDS011;352;48.626;9.238;2023-09-19T17:35:06;2.90;;;2.70;;
735;SDS011;352;48.626;9.238;2023-09-19T17:37:33;3.03;;;2.80;;
735;SDS011;352;48.626;9.238;2023-09-19T17:40:00;3.17;;;2.97;;
735;SDS011;352;48.626;9.238;2023-09-19T17:42:31;3.17;;;2.97;;
735;SDS011;352;48.626;9.238;2023-09-19T17:44:58;3.07;;;2.87;;
735;SDS011;352;48.626;9.238;2023-09-19T17:47:24;3.30;;;3.00;;
735;SDS011;352;48.626;9.238;2023-09-19T17:49:51;3.37;;;3.13;;
735;SDS011;352;48.626;9.238;2023-09-19T17:52:18;3.17;;;2.93;;
735;SDS011;352;48.626;9.238;2023-09-19T17:54:52;3.10;;;2.90;;
735;SDS011;352;48.626;9.238;2023-09-19T17:57:25;3.57;;;3.30;;
735;SDS011;352;48.626;9.238;2023-09-19T17:59:54;4.27;;;4.00;;
735;SDS011;352;48.626;9.238;2023-09-19T18:02:20;3.60;;;3.30;;
735;SDS011;352;48.626;9.238;2023-09-19T18:04:47;3.23;;;3.00;;
735;SDS011;352;48.626;9.238;2023-09-19T18:07:14;3.57;;;2.83;;
735;SDS011;352;48.626;9.238;2023-09-19T18:09:41;3.67;;;3.47;;
735;SDS011;352;48.626;9.238;2023-09-19T18:12:08;3.10;;;2.90;;
735;SDS011;352;48.626;9.238;2023-09-19T18:14:35;5.53;;;3.20;;
735;SDS011;352;48.626;9.238;2023-09-19T18:17:03;3.40;;;3.20;;
735;SDS011;352;48.626;9.238;2023-09-19T18:19:30;2.97;;;2.77;;
735;SDS011;352;48.626;9.238;2023-09-19T18:21:57;3.37;;;3.17;;
735;SDS011;352;48.626;9.238;2023-09-19T18:24:26;2.90;;;2.70;;
735;SDS011;352;48.626;9.238;2023-09-19T18:26:53;3.20;;;2.90;;
735;SDS011;352;48.626;9.238;2023-09-19T18:29:20;3.00;;;2.80;;
735;SDS011;352;48.626;9.238;2023-09-19T18:31:46;2.70;;;2.50;;
735;SDS011;352;48.626;9.238;2023-09-19T18:34:15;3.37;;;3.10;;
735;SDS011;352;48.626;9.238;2023-09-19T18:36:41;3.23;;;2.73;;
735;SDS011;352;48.626;9.238;2023-09-19T18:39:09;4.53;;;2.73;;
735;SDS011;352;48.626;9.238;2023-09-19T18:41:36;3.47;;;2.60;;
735;SDS011;352;48.626;9.238;2023-09-19T18:44:03;2.77;;;2.60;;
735;SDS011;352;48.626;9.238;2023-09-19T18:46:30;2.67;;;2.47;;
735;SDS011;352;48.626;9.238;2023-09-19T18:48:58;4.80;;;2.57;;
735;SDS011;352;48.626;9.238;2023-09-19T18:51:26;2.93;;;2.73;;
735;SDS011;352;48.626;9.238;2023-09-19T18:53:53;3.13;;;2.90;;
735;SDS011;352;48.626;9.238;2023-09-19T18:56:20;2.40;;;2.30;;
735;SDS011;352;48.626;9.238;2023-09-19T18:58:49;3.00;;;2.80;;
735;SDS011;352;48.626;9.238;2023-09-19T19:01:16;2.70;;;2.50;;
735;SDS011;352;48.626;9.238;2023-09-19T19:03:44;3.10;;;2.90;;
735;SDS011;352;48.626;9.238;2023-09-19T19:06:11;2.60;;;2.50;;
735;SDS011;352;48.626;9.238;2023-09-19T19:08:42;2.53;;;2.40;;
735;SDS011;352;48.626;9.238;2023-09-19T19:11:10;3.57;;;3.07;;
735;SDS011;352;48.626;9.238;2023-09-19T19:13:39;3.03;;;2.73;;
735;SDS011;352;48.626;9.238;2023-09-19T19:16:06;3.10;;;2.50;;
735;SDS011;352;48.626;9.238;2023-09-19T19:18:35;3.60;;;3.30;;
735;SDS011;352;48.626;9.238;2023-09-19T19:21:02;3.00;;;2.80;;
735;SDS011;352;48.626;9.238;2023-09-19T19:23:34;3.00;;;2.80;;
735;SDS011;352;48.626;9.238;2023-09-19T19:26:04;3.00;;;2.80;;
735;SDS011;352;48.626;9.238;2023-09-19T19:28:31;3.53;;;2.90;;
735;SDS011;352;48.626;9.238;2023-09-19T19:30:59;2.90;;;2.70;;
735;SDS011;352;48.626;9.238;2023-09-19T19:33:26;2.63;;;2.50;;
735;SDS011;352;48.626;9.238;2023-09-19T19:35:54;2.80;;;2.60;;
735;SDS011;352;48.626;9.238;2023-09-19T19:38:30;4.00;;;3.13;;
735;SDS011;352;48.626;9.238;2023-09-19T19:40:57;2.53;;;2.33;;
735;SDS011;352;48.626;9.238;2023-09-19T19:43:26;3.10;;;2.80;;
735;SDS011;352;48.626;9.238;2023-09-19T19:45:53;4.97;;;3.20;;
735;SDS011;352;48.626;9.238;2023-09-19T19:48:21;2.63;;;2.43;;
735;SDS011;352;48.626;9.238;2023-09-19T19:50:48;2.90;;;2.70;;
735;SDS011;352;48.626;9.238;2023-09-19T19:53:15;3.10;;;2.70;;
735;SDS011;352;48.626;9.238;2023-09-19T19:55:42;3.17;;;2.87;;
735;SDS011;352;48.626;9.238;2023-09-19T19:58:11;3.30;;;2.93;;
735;SDS011;352;48.626;9.238;2023-09-19T20:00:41;3.40;;;3.20;;
735;SDS011;352;48.626;9.238;2023-09-19T20:03:09;2.73;;;2.53;;
735;SDS011;352;48.626;9.238;2023-09-19T20:05:50;3.67;;;3.20;;
735;SDS011;352;48.626;9.238;2023-09-19T20:08:17;3.10;;;2.00;;
735;SDS011;352;48.626;9.238;2023-09-19T20:10:45;4.00;;;2.30;;
735;SDS011;352;48.626;9.238;2023-09-19T20:13:11;2.90;;;2.33;;
735;SDS011;352;48.626;9.238;2023-09-19T20:15:41;3.27;;;2.87;;
735;SDS011;352;48.626;9.238;2023-09-19T20:18:08;4.40;;;2.53;;
735;SDS011;352;48.626;9.238;2023-09-19T20:20:37;3.07;;;2.30;;
735;SDS011;352;48.626;9.238;2023-09-19T20:23:04;2.20;;;2.00;;
735;SDS011;352;48.626;9.238;2023-09-19T20:25:33;3.40;;;2.70;;
735;SDS011;352;48.626;9.238;2023-09-19T20:28:01;2.47;;;2.30;;
735;SDS011;352;48.626;9.238;2023-09-19T20:30:29;7.00;;;3.20;;
735;SDS011;352;48.626;9.238;2023-09-19T20:32:57;2.50;;;2.40;;
735;SDS011;352;48.626;9.238;2023-09-19T20:35:26;2.90;;;2.30;;
735;SDS011;352;48.626;9.238;2023-09-19T20:37:53;5.73;;;2.30;;
735;SDS011;352;48.626;9.238;2023-09-19T20:40:25;2.63;;;2.43;;
735;SDS011;352;48.626;9.238;2023-09-19T20:42:52;2.20;;;2.10;;
735;SDS011;352;48.626;9.238;2023-09-19T20:45:19;2.20;;;2.03;;
735;SDS011;352;48.626;9.238;2023-09-19T20:47:46;2.83;;;2.53;;
735;SDS011;352;48.626;9.238;2023-09-19T20:50:14;2.10;;;1.90;;
735;SDS011;352;48.626;9.238;2023-09-19T20:52:42;2.57;;;2.37;;
735;SDS011;352;48.626;9.238;2023-09-19T20:55:08;2.20;;;2.00;;
735;SDS011;352;48.626;9.238;2023-09-19T20:57:35;2.13;;;2.03;;
735;SDS011;352;48.626;9.238;2023-09-19T21:00:02;2.37;;;2.17;;
735;SDS011;352;48.626;9.238;2023-09-19T21:02:31;2.57;;;2.37;;
735;SDS011;352;48.626;9.238;2023-09-19T21:04:58;2.60;;;2.40;;
735;SDS011;352;48.626;9.238;2023-09-19T21:07:26;3.13;;;2.17;;
735;SDS011;352;48.626;9.238;2023-09-19T21:09:54;2.43;;;2.23;;
735;SDS011;352;48.626;9.238;2023-09-19T21:12:21;2.57;;;2.37;;
735;SDS011;352;48.626;9.238;2023-09-19T21:14:48;2.37;;;2.27;;
735;SDS011;352;48.626;9.238;2023-09-19T21:17:14;3.73;;;2.50;;
735;SDS011;352;48.626;9.238;2023-09-19T21:19:41;2.10;;;1.90;;
735;SDS011;352;48.626;9.238;2023-09-19T21:22:08;2.23;;;2.13;;
735;SDS011;352;48.626;9.238;2023-09-19T21:24:37;2.57;;;2.37;;
735;SDS011;352;48.626;9.238;2023-09-19T21:27:04;2.37;;;2.17;;
735;SDS011;352;48.626;9.238;2023-09-19T21:29:32;2.27;;;2.07;;
735;SDS011;352;48.626;9.238;2023-09-19T21:31:59;2.40;;;2.20;;
735;SDS011;352;48.626;9.238;2023-09-19T21:34:25;3.27;;;2.53;;
735;SDS011;352;48.626;9.238;2023-09-19T21:36:52;2.73;;;2.33;;
735;SDS011;352;48.626;9.238;2023-09-19T21:39:20;2.83;;;2.63;;
735;SDS011;352;48.626;9.238;2023-09-19T21:41:48;2.73;;;2.37;;
735;SDS011;352;48.626;9.238;2023-09-19T21:44:14;3.50;;;2.60;;
735;SDS011;352;48.626;9.238;2023-09-19T21:46:41;4.47;;;2.33;;
735;SDS011;352;48.626;9.238;2023-09-19T21:49:08;5.20;;;2.73;;
735;SDS011;352;48.626;9.238;2023-09-19T23:16:02;3.27;;;2.53;;
